sensor_id;sensor_type;location;lat;lon;timestamp;P1;durP1;ratioP1;P2;durP2;ratioP2
1995;SDS011;38556;47.068;15.408;2023-06-26T00:01:54;28.60;;;26.70;;
1995;SDS011;38556;47.068;15.408;2023-06-26T00:04:22;28.53;;;26.60;;
1995;SDS011;38556;47.068;15.408;2023-06-26T00:06:49;28.80;;;27.00;;
1995;SDS011;38556;47.068;15.408;2023-06-26T00:09:16;26.63;;;24.93;;
1995;SDS011;38556;47.068;15.408;2023-06-26T00:11:43;27.07;;;25.47;;
1995;SDS011;38556;47.068;15.408;2023-06-26T00:14:12;27.33;;;25.63;;
1995;SDS011;38556;47.068;15.408;2023-06-26T00:16:40;27.87;;;26.17;;
1995;SDS011;38556;47.068;15.408;2023-06-26T00:19:07;26.97;;;25.30;;
1995;SDS011;38556;47.068;15.408;2023-06-26T00:21:35;27.50;;;25.70;;
1995;SDS011;38556;47.068;15.408;2023-06-26T00:24:02;27.17;;;25.57;;
1995;SDS011;38556;47.068;15.408;2023-06-26T00:26:30;27.40;;;25.60;;
1995;SDS011;38556;47.068;15.408;2023-06-26T00:28:57;26.70;;;25.00;;
1995;SDS011;38556;47.068;15.408;2023-06-26T00:31:26;26.00;;;24.40;;
1995;SDS011;38556;47.068;15.408;2023-06-26T00:33:53;26.10;;;24.53;;
1995;SDS011;38556;47.068;15.408;2023-06-26T00:36:20;25.90;;;24.10;;
1995;SDS011;38556;47.068;15.408;2023-06-26T00:38:48;26.47;;;24.87;;
1995;SDS011;38556;47.068;15.408;2023-06-26T00:41:15;24.53;;;23.00;;
1995;SDS011;38556;47.068;15.408;2023-06-26T00:43:42;26.00;;;24.37;;
1995;SDS011;38556;47.068;15.408;2023-06-26T00:46:10;26.07;;;24.53;;
1995;SDS011;38556;47.068;15.408;2023-06-26T00:48:42;26.47;;;24.80;;
1995;SDS011;38556;47.068;15.408;2023-06-26T00:51:11;26.00;;;24.50;;
1995;SDS011;38556;47.068;15.408;2023-06-26T00:53:38;27.13;;;25.43;;
1995;SDS011;38556;47.068;15.408;2023-06-26T00:56:06;25.77;;;24.27;;
1995;SDS011;38556;47.068;15.408;2023-06-26T00:58:34;26.47;;;24.97;;
1995;SDS011;38556;47.068;15.408;2023-06-26T01:01:01;26.47;;;24.77;;
1995;SDS011;38556;47.068;15.408;2023-06-26T01:03:30;26.50;;;24.90;;
1995;SDS011;38556;47.068;15.408;2023-06-26T01:05:59;26.00;;;24.37;;
1995;SDS011;38556;47.068;15.408;2023-06-26T01:08:28;27.57;;;25.77;;
1995;SDS011;38556;47.068;15.408;2023-06-26T01:10:55;27.13;;;25.53;;
1995;SDS011;38556;47.068;15.408;2023-06-26T01:13:23;26.03;;;24.33;;
1995;SDS011;38556;47.068;15.408;2023-06-26T01:15:51;25.73;;;24.13;;
1995;SDS011;38556;47.068;15.408;2023-06-26T01:18:18;26.07;;;24.50;;
1995;SDS011;38556;47.068;15.408;2023-06-26T01:20:47;25.90;;;24.30;;
1995;SDS011;38556;47.068;15.408;2023-06-26T01:23:18;25.93;;;24.27;;
1995;SDS011;38556;47.068;15.408;2023-06-26T01:25:54;25.97;;;24.37;;
1995;SDS011;38556;47.068;15.408;2023-06-26T01:28:30;25.30;;;23.70;;
1995;SDS011;38556;47.068;15.408;2023-06-26T01:31:00;27.00;;;25.33;;
1995;SDS011;38556;47.068;15.408;2023-06-26T01:33:29;25.97;;;24.37;;
1995;SDS011;38556;47.068;15.408;2023-06-26T01:35:57;26.20;;;24.60;;
1995;SDS011;38556;47.068;15.408;2023-06-26T01:38:24;26.53;;;24.93;;
1995;SDS011;38556;47.068;15.408;2023-06-26T01:40:52;26.90;;;25.20;;
1995;SDS011;38556;47.068;15.408;2023-06-26T01:43:21;26.80;;;25.20;;
1995;SDS011;38556;47.068;15.408;2023-06-26T01:45:54;26.53;;;25.00;;
1995;SDS011;38556;47.068;15.408;2023-06-26T01:48:33;25.93;;;24.30;;
1995;SDS011;38556;47.068;15.408;2023-06-26T01:51:07;26.63;;;25.03;;
1995;SDS011;38556;47.068;15.408;2023-06-26T01:53:36;26.13;;;24.53;;
1995;SDS011;38556;47.068;15.408;2023-06-26T01:56:08;26.47;;;24.87;;
1995;SDS011;38556;47.068;15.408;2023-06-26T01:58:40;25.10;;;23.60;;
1995;SDS011;38556;47.068;15.408;2023-06-26T02:01:11;25.50;;;23.90;;
1995;SDS011;38556;47.068;15.408;2023-06-26T02:03:38;25.90;;;24.30;;
1995;SDS011;38556;47.068;15.408;2023-06-26T02:06:06;28.17;;;26.17;;
1995;SDS011;38556;47.068;15.408;2023-06-26T02:08:33;26.80;;;25.20;;
1995;SDS011;38556;47.068;15.408;2023-06-26T02:11:00;28.40;;;26.50;;
1995;SDS011;38556;47.068;15.408;2023-06-26T02:13:28;29.00;;;26.80;;
1995;SDS011;38556;47.068;15.408;2023-06-26T02:15:55;26.37;;;24.70;;
1995;SDS011;38556;47.068;15.408;2023-06-26T02:18:24;26.20;;;24.60;;
1995;SDS011;38556;47.068;15.408;2023-06-26T02:20:52;28.33;;;26.40;;
1995;SDS011;38556;47.068;15.408;2023-06-26T02:23:19;26.43;;;24.83;;
1995;SDS011;38556;47.068;15.408;2023-06-26T02:25:46;26.97;;;25.37;;
1995;SDS011;38556;47.068;15.408;2023-06-26T02:28:13;27.27;;;25.47;;
1995;SDS011;38556;47.068;15.408;2023-06-26T02:30:40;26.60;;;25.00;;
1995;SDS011;38556;47.068;15.408;2023-06-26T02:33:08;26.27;;;24.77;;
1995;SDS011;38556;47.068;15.408;2023-06-26T02:35:36;26.83;;;25.27;;
1995;SDS011;38556;47.068;15.408;2023-06-26T02:38:04;27.10;;;25.50;;
1995;SDS011;38556;47.068;15.408;2023-06-26T02:40:31;26.60;;;25.00;;
1995;SDS011;38556;47.068;15.408;2023-06-26T02:42:59;26.57;;;24.97;;
1995;SDS011;38556;47.068;15.408;2023-06-26T02:45:26;26.50;;;24.83;;
1995;SDS011;38556;47.068;15.408;2023-06-26T02:47:54;27.33;;;25.73;;
1995;SDS011;38556;47.068;15.408;2023-06-26T02:50:20;27.27;;;25.60;;
1995;SDS011;38556;47.068;15.408;2023-06-26T02:52:49;28.00;;;26.30;;
1995;SDS011;38556;47.068;15.408;2023-06-26T02:55:17;26.37;;;24.67;;
1995;SDS011;38556;47.068;15.408;2023-06-26T02:57:45;26.00;;;24.50;;
1995;SDS011;38556;47.068;15.408;2023-06-26T03:00:13;27.77;;;25.97;;
1995;SDS011;38556;47.068;15.408;2023-06-26T03:02:41;26.97;;;25.47;;
1995;SDS011;38556;47.068;15.408;2023-06-26T03:05:08;27.33;;;25.70;;
1995;SDS011;38556;47.068;15.408;2023-06-26T03:07:35;27.13;;;25.50;;
1995;SDS011;38556;47.068;15.408;2023-06-26T03:10:04;27.53;;;25.53;;
1995;SDS011;38556;47.068;15.408;2023-06-26T03:12:32;27.13;;;25.53;;
1995;SDS011;38556;47.068;15.408;2023-06-26T03:15:00;28.50;;;26.50;;
1995;SDS011;38556;47.068;15.408;2023-06-26T03:17:26;26.83;;;25.30;;
1995;SDS011;38556;47.068;15.408;2023-06-26T03:19:54;28.73;;;27.00;;
1995;SDS011;38556;47.068;15.408;2023-06-26T03:22:21;27.40;;;25.63;;
1995;SDS011;38556;47.068;15.408;2023-06-26T03:24:48;28.20;;;26.37;;
1995;SDS011;38556;47.068;15.408;2023-06-26T03:27:17;28.63;;;26.93;;
1995;SDS011;38556;47.068;15.408;2023-06-26T03:29:44;28.00;;;26.20;;
1995;SDS011;38556;47.068;15.408;2023-06-26T03:32:12;26.53;;;25.03;;
1995;SDS011;38556;47.068;15.408;2023-06-26T03:34:39;28.30;;;26.60;;
1995;SDS011;38556;47.068;15.408;2023-06-26T03:37:06;28.13;;;26.53;;
1995;SDS011;38556;47.068;15.408;2023-06-26T03:39:34;29.47;;;27.63;;
1995;SDS011;38556;47.068;15.408;2023-06-26T03:42:00;27.77;;;25.97;;
1995;SDS011;38556;47.068;15.408;2023-06-26T03:44:29;26.87;;;25.27;;
1995;SDS011;38556;47.068;15.408;2023-06-26T03:46:56;29.60;;;27.80;;
1995;SDS011;38556;47.068;15.408;2023-06-26T03:49:24;28.10;;;26.30;;
1995;SDS011;38556;47.068;15.408;2023-06-26T03:51:51;28.57;;;26.87;;
1995;SDS011;38556;47.068;15.408;2023-06-26T03:54:19;27.70;;;25.90;;
1995;SDS011;38556;47.068;15.408;2023-06-26T03:56:46;27.70;;;25.87;;
1995;SDS011;38556;47.068;15.408;2023-06-26T03:59:13;28.00;;;26.27;;
1995;SDS011;38556;47.068;15.408;2023-06-26T04:01:43;30.17;;;28.40;;
1995;SDS011;38556;47.068;15.408;2023-06-26T04:04:10;28.20;;;26.40;;
1995;SDS011;38556;47.068;15.408;2023-06-26T04:06:37;29.30;;;27.50;;
1995;SDS011;38556;47.068;15.408;2023-06-26T04:09:04;30.50;;;28.60;;
1995;SDS011;38556;47.068;15.408;2023-06-26T04:11:31;29.37;;;27.57;;
1995;SDS011;38556;47.068;15.408;2023-06-26T04:13:59;29.60;;;27.60;;
1995;SDS011;38556;47.068;15.408;2023-06-26T04:16:26;30.43;;;28.63;;
1995;SDS011;38556;47.068;15.408;2023-06-26T04:18:55;29.37;;;27.47;;
1995;SDS011;38556;47.068;15.408;2023-06-26T04:21:23;29.37;;;27.67;;
1995;SDS011;38556;47.068;15.408;2023-06-26T04:23:51;28.03;;;26.40;;
1995;SDS011;38556;47.068;15.408;2023-06-26T04:26:18;28.93;;;27.13;;
1995;SDS011;38556;47.068;15.408;2023-06-26T04:28:45;29.93;;;28.13;;
1995;SDS011;38556;47.068;15.408;2023-06-26T04:31:13;28.50;;;26.80;;
1995;SDS011;38556;47.068;15.408;2023-06-26T04:33:40;28.40;;;26.67;;
1995;SDS011;38556;47.068;15.408;2023-06-26T04:36:08;29.10;;;27.30;;
1995;SDS011;38556;47.068;15.408;2023-06-26T04:38:36;28.40;;;26.60;;
1995;SDS011;38556;47.068;15.408;2023-06-26T04:41:03;30.17;;;28.37;;
1995;SDS011;38556;47.068;15.408;2023-06-26T04:43:30;29.57;;;27.77;;
1995;SDS011;38556;47.068;15.408;2023-06-26T04:45:57;31.73;;;29.83;;
1995;SDS011;38556;47.068;15.408;2023-06-26T04:48:25;30.90;;;29.00;;
1995;SDS011;38556;47.068;15.408;2023-06-26T04:50:54;30.97;;;29.17;;
1995;SDS011;38556;47.068;15.408;2023-06-26T04:53:23;29.73;;;27.83;;
1995;SDS011;38556;47.068;15.408;2023-06-26T04:55:51;31.97;;;29.67;;
1995;SDS011;38556;47.068;15.408;2023-06-26T04:58:19;32.07;;;29.90;;
1995;SDS011;38556;47.068;15.408;2023-06-26T05:00:46;31.30;;;29.40;;
1995;SDS011;38556;47.068;15.408;2023-06-26T05:03:15;30.70;;;28.50;;
1995;SDS011;38556;47.068;15.408;2023-06-26T05:05:43;29.30;;;27.30;;
1995;SDS011;38556;47.068;15.408;2023-06-26T05:08:14;31.40;;;29.40;;
1995;SDS011;38556;47.068;15.408;2023-06-26T05:10:44;30.57;;;28.60;;
1995;SDS011;38556;47.068;15.408;2023-06-26T05:13:12;29.10;;;27.10;;
1995;SDS011;38556;47.068;15.408;2023-06-26T05:15:40;29.10;;;27.37;;
1995;SDS011;38556;47.068;15.408;2023-06-26T05:18:08;29.70;;;27.93;;
1995;SDS011;38556;47.068;15.408;2023-06-26T05:20:36;30.50;;;28.60;;
1995;SDS011;38556;47.068;15.408;2023-06-26T05:23:04;30.10;;;28.10;;
1995;SDS011;38556;47.068;15.408;2023-06-26T05:25:31;28.53;;;26.83;;
1995;SDS011;38556;47.068;15.408;2023-06-26T05:28:01;28.53;;;26.73;;
1995;SDS011;38556;47.068;15.408;2023-06-26T05:30:30;28.70;;;26.90;;
1995;SDS011;38556;47.068;15.408;2023-06-26T05:33:00;30.00;;;27.90;;
1995;SDS011;38556;47.068;15.408;2023-06-26T05:35:28;30.70;;;28.37;;
1995;SDS011;38556;47.068;15.408;2023-06-26T05:37:57;28.37;;;26.67;;
1995;SDS011;38556;47.068;15.408;2023-06-26T05:40:25;29.70;;;27.50;;
1995;SDS011;38556;47.068;15.408;2023-06-26T05:42:53;27.90;;;26.10;;
1995;SDS011;38556;47.068;15.408;2023-06-26T05:45:22;28.77;;;26.77;;
1995;SDS011;38556;47.068;15.408;2023-06-26T05:47:49;28.97;;;27.10;;
1995;SDS011;38556;47.068;15.408;2023-06-26T05:50:17;29.63;;;27.83;;
1995;SDS011;38556;47.068;15.408;2023-06-26T05:52:46;29.40;;;27.60;;
1995;SDS011;38556;47.068;15.408;2023-06-26T05:55:14;31.97;;;29.97;;
1995;SDS011;38556;47.068;15.408;2023-06-26T05:57:41;28.83;;;27.10;;
1995;SDS011;38556;47.068;15.408;2023-06-26T06:00:10;28.53;;;26.90;;
1995;SDS011;38556;47.068;15.408;2023-06-26T06:02:39;30.00;;;28.00;;
1995;SDS011;38556;47.068;15.408;2023-06-26T06:05:08;29.27;;;27.27;;
1995;SDS011;38556;47.068;15.408;2023-06-26T06:07:36;28.33;;;26.33;;
1995;SDS011;38556;47.068;15.408;2023-06-26T06:10:03;30.60;;;28.30;;
1995;SDS011;38556;47.068;15.408;2023-06-26T06:12:31;27.90;;;26.23;;
1995;SDS011;38556;47.068;15.408;2023-06-26T06:14:58;29.27;;;27.27;;
1995;SDS011;38556;47.068;15.408;2023-06-26T06:17:26;28.03;;;26.20;;
1995;SDS011;38556;47.068;15.408;2023-06-26T06:19:55;28.20;;;26.40;;
1995;SDS011;38556;47.068;15.408;2023-06-26T06:22:22;29.23;;;27.17;;
1995;SDS011;38556;47.068;15.408;2023-06-26T06:24:49;27.83;;;26.00;;
1995;SDS011;38556;47.068;15.408;2023-06-26T06:27:17;29.27;;;27.27;;
1995;SDS011;38556;47.068;15.408;2023-06-26T06:29:44;29.17;;;26.97;;
1995;SDS011;38556;47.068;15.408;2023-06-26T06:32:12;28.73;;;27.03;;
1995;SDS011;38556;47.068;15.408;2023-06-26T06:34:39;29.17;;;27.13;;
1995;SDS011;38556;47.068;15.408;2023-06-26T06:37:08;27.77;;;25.87;;
1995;SDS011;38556;47.068;15.408;2023-06-26T06:39:36;27.97;;;25.90;;
1995;SDS011;38556;47.068;15.408;2023-06-26T06:42:03;27.10;;;25.17;;
1995;SDS011;38556;47.068;15.408;2023-06-26T06:44:31;28.17;;;26.43;;
1995;SDS011;38556;47.068;15.408;2023-06-26T06:46:58;27.93;;;25.97;;
1995;SDS011;38556;47.068;15.408;2023-06-26T06:49:26;27.07;;;25.37;;
1995;SDS011;38556;47.068;15.408;2023-06-26T06:51:53;28.40;;;26.80;;
1995;SDS011;38556;47.068;15.408;2023-06-26T06:54:25;29.33;;;27.30;;
1995;SDS011;38556;47.068;15.408;2023-06-26T06:56:53;30.93;;;28.33;;
1995;SDS011;38556;47.068;15.408;2023-06-26T06:59:20;27.07;;;25.40;;
1995;SDS011;38556;47.068;15.408;2023-06-26T07:01:48;27.67;;;26.00;;
1995;SDS011;38556;47.068;15.408;2023-06-26T07:04:15;28.80;;;27.10;;
1995;SDS011;38556;47.068;15.408;2023-06-26T07:06:42;28.80;;;27.00;;
1995;SDS011;38556;47.068;15.408;2023-06-26T07:09:09;27.57;;;25.90;;
1995;SDS011;38556;47.068;15.408;2023-06-26T07:11:38;28.70;;;26.87;;
1995;SDS011;38556;47.068;15.408;2023-06-26T07:14:06;28.80;;;26.80;;
1995;SDS011;38556;47.068;15.408;2023-06-26T07:16:33;28.07;;;26.17;;
1995;SDS011;38556;47.068;15.408;2023-06-26T07:19:00;27.73;;;25.80;;
1995;SDS011;38556;47.068;15.408;2023-06-26T07:21:28;27.43;;;25.73;;
1995;SDS011;38556;47.068;15.408;2023-06-26T07:23:55;27.23;;;25.57;;
1995;SDS011;38556;47.068;15.408;2023-06-26T07:26:23;29.53;;;27.53;;
1995;SDS011;38556;47.068;15.408;2023-06-26T07:28:51;28.63;;;26.70;;
1995;SDS011;38556;47.068;15.408;2023-06-26T07:31:20;27.33;;;25.73;;
1995;SDS011;38556;47.068;15.408;2023-06-26T07:33:47;28.27;;;26.47;;
1995;SDS011;38556;47.068;15.408;2023-06-26T07:36:15;26.57;;;24.97;;
1995;SDS011;38556;47.068;15.408;2023-06-26T07:38:42;29.10;;;27.07;;
1995;SDS011;38556;47.068;15.408;2023-06-26T07:41:09;30.10;;;28.00;;
1995;SDS011;38556;47.068;15.408;2023-06-26T07:43:36;28.47;;;26.53;;
1995;SDS011;38556;47.068;15.408;2023-06-26T07:46:05;26.73;;;25.23;;
1995;SDS011;38556;47.068;15.408;2023-06-26T07:48:32;27.40;;;25.60;;
1995;SDS011;38556;47.068;15.408;2023-06-26T07:51:00;26.30;;;24.80;;
1995;SDS011;38556;47.068;15.408;2023-06-26T07:53:27;28.27;;;26.47;;
1995;SDS011;38556;47.068;15.408;2023-06-26T07:55:55;45.97;;;42.73;;
1995;SDS011;38556;47.068;15.408;2023-06-26T07:58:22;28.93;;;27.10;;
1995;SDS011;38556;47.068;15.408;2023-06-26T08:00:49;29.47;;;27.60;;
1995;SDS011;38556;47.068;15.408;2023-06-26T08:03:18;27.70;;;26.10;;
1995;SDS011;38556;47.068;15.408;2023-06-26T08:05:45;28.37;;;26.53;;
1995;SDS011;38556;47.068;15.408;2023-06-26T08:08:12;28.07;;;26.27;;
1995;SDS011;38556;47.068;15.408;2023-06-26T08:10:40;28.50;;;26.90;;
1995;SDS011;38556;47.068;15.408;2023-06-26T08:13:07;28.00;;;26.40;;
1995;SDS011;38556;47.068;15.408;2023-06-26T08:15:35;29.83;;;28.13;;
1995;SDS011;38556;47.068;15.408;2023-06-26T08:18:02;27.87;;;26.03;;
1995;SDS011;38556;47.068;15.408;2023-06-26T08:20:31;27.27;;;25.77;;
1995;SDS011;38556;47.068;15.408;2023-06-26T08:23:01;27.83;;;26.20;;
1995;SDS011;38556;47.068;15.408;2023-06-26T08:25:28;27.87;;;26.17;;
1995;SDS011;38556;47.068;15.408;2023-06-26T08:27:56;28.17;;;26.57;;
1995;SDS011;38556;47.068;15.408;2023-06-26T08:30:23;28.90;;;26.90;;
1995;SDS011;38556;47.068;15.408;2023-06-26T08:32:54;27.10;;;25.47;;
1995;SDS011;38556;47.068;15.408;2023-06-26T08:35:21;26.80;;;25.30;;
1995;SDS011;38556;47.068;15.408;2023-06-26T08:37:50;26.57;;;25.07;;
1995;SDS011;38556;47.068;15.408;2023-06-26T08:40:19;27.43;;;25.73;;
1995;SDS011;38556;47.068;15.408;2023-06-26T08:42:47;27.60;;;26.00;;
1995;SDS011;38556;47.068;15.408;2023-06-26T08:45:17;28.70;;;26.90;;
1995;SDS011;38556;47.068;15.408;2023-06-26T08:47:46;27.40;;;25.70;;
1995;SDS011;38556;47.068;15.408;2023-06-26T08:50:18;27.03;;;25.43;;
1995;SDS011;38556;47.068;15.408;2023-06-26T08:52:52;26.87;;;25.30;;
1995;SDS011;38556;47.068;15.408;2023-06-26T08:55:23;27.50;;;25.73;;
1995;SDS011;38556;47.068;15.408;2023-06-26T08:57:53;27.00;;;25.43;;
1995;SDS011;38556;47.068;15.408;2023-06-26T09:00:20;26.53;;;24.93;;
1995;SDS011;38556;47.068;15.408;2023-06-26T09:02:48;26.70;;;25.10;;
1995;SDS011;38556;47.068;15.408;2023-06-26T09:05:15;27.33;;;25.73;;
1995;SDS011;38556;47.068;15.408;2023-06-26T09:07:42;28.50;;;26.50;;
1995;SDS011;38556;47.068;15.408;2023-06-26T09:10:11;26.93;;;25.33;;
1995;SDS011;38556;47.068;15.408;2023-06-26T09:12:39;26.97;;;25.37;;
1995;SDS011;38556;47.068;15.408;2023-06-26T09:15:06;26.23;;;24.37;;
1995;SDS011;38556;47.068;15.408;2023-06-26T09:17:38;26.87;;;25.37;;
1995;SDS011;38556;47.068;15.408;2023-06-26T09:20:06;27.70;;;26.00;;
1995;SDS011;38556;47.068;15.408;2023-06-26T09:22:36;27.17;;;25.43;;
1995;SDS011;38556;47.068;15.408;2023-06-26T09:25:05;27.27;;;25.67;;
1995;SDS011;38556;47.068;15.408;2023-06-26T09:27:35;27.90;;;26.07;;
1995;SDS011;38556;47.068;15.408;2023-06-26T09:30:02;27.13;;;25.50;;
1995;SDS011;38556;47.068;15.408;2023-06-26T09:32:34;26.57;;;24.93;;
1995;SDS011;38556;47.068;15.408;2023-06-26T09:35:02;26.97;;;25.37;;
1995;SDS011;38556;47.068;15.408;2023-06-26T09:37:30;27.97;;;26.37;;
1995;SDS011;38556;47.068;15.408;2023-06-26T09:39:58;26.13;;;24.70;;
1995;SDS011;38556;47.068;15.408;2023-06-26T09:42:26;23.97;;;22.67;;
1995;SDS011;38556;47.068;15.408;2023-06-26T09:44:54;25.93;;;24.43;;
1995;SDS011;38556;47.068;15.408;2023-06-26T09:47:23;25.13;;;23.83;;
1995;SDS011;38556;47.068;15.408;2023-06-26T09:49:50;23.90;;;22.70;;
1995;SDS011;38556;47.068;15.408;2023-06-26T09:52:20;24.07;;;22.87;;
1995;SDS011;38556;47.068;15.408;2023-06-26T09:54:48;25.07;;;23.77;;
1995;SDS011;38556;47.068;15.408;2023-06-26T09:57:16;24.60;;;23.10;;
1995;SDS011;38556;47.068;15.408;2023-06-26T09:59:44;23.53;;;22.27;;
1995;SDS011;38556;47.068;15.408;2023-06-26T10:02:13;25.70;;;24.20;;
1995;SDS011;38556;47.068;15.408;2023-06-26T10:04:40;25.17;;;23.83;;
1995;SDS011;38556;47.068;15.408;2023-06-26T10:07:10;23.70;;;22.50;;
1995;SDS011;38556;47.068;15.408;2023-06-26T10:09:40;21.80;;;20.70;;
1995;SDS011;38556;47.068;15.408;2023-06-26T10:12:11;23.80;;;22.40;;
1995;SDS011;38556;47.068;15.408;2023-06-26T10:14:43;22.83;;;21.70;;
1995;SDS011;38556;47.068;15.408;2023-06-26T10:17:11;23.40;;;22.20;;
1995;SDS011;38556;47.068;15.408;2023-06-26T10:19:44;23.10;;;21.90;;
1995;SDS011;38556;47.068;15.408;2023-06-26T10:22:12;22.97;;;21.77;;
1995;SDS011;38556;47.068;15.408;2023-06-26T10:24:43;22.10;;;21.00;;
1995;SDS011;38556;47.068;15.408;2023-06-26T10:27:14;25.17;;;23.57;;
1995;SDS011;38556;47.068;15.408;2023-06-26T10:29:43;28.10;;;26.30;;
1995;SDS011;38556;47.068;15.408;2023-06-26T10:32:14;27.03;;;25.10;;
1995;SDS011;38556;47.068;15.408;2023-06-26T10:34:43;27.43;;;25.73;;
1995;SDS011;38556;47.068;15.408;2023-06-26T10:37:11;27.20;;;25.70;;
1995;SDS011;38556;47.068;15.408;2023-06-26T10:39:46;26.20;;;24.70;;
1995;SDS011;38556;47.068;15.408;2023-06-26T10:42:15;25.53;;;24.00;;
1995;SDS011;38556;47.068;15.408;2023-06-26T10:44:44;27.47;;;25.87;;
1995;SDS011;38556;47.068;15.408;2023-06-26T10:47:13;26.80;;;25.30;;
1995;SDS011;38556;47.068;15.408;2023-06-26T10:50:13;26.90;;;25.40;;
1995;SDS011;38556;47.068;15.408;2023-06-26T10:52:44;26.80;;;24.93;;
1995;SDS011;38556;47.068;15.408;2023-06-26T10:55:13;27.07;;;25.43;;
1995;SDS011;38556;47.068;15.408;2023-06-26T10:57:44;27.90;;;26.10;;
1995;SDS011;38556;47.068;15.408;2023-06-26T11:00:14;27.87;;;26.17;;
1995;SDS011;38556;47.068;15.408;2023-06-26T11:02:50;26.00;;;24.40;;
1995;SDS011;38556;47.068;15.408;2023-06-26T11:05:24;27.70;;;26.20;;
1995;SDS011;38556;47.068;15.408;2023-06-26T11:08:02;26.30;;;24.80;;
1995;SDS011;38556;47.068;15.408;2023-06-26T11:13:17;26.63;;;24.83;;
1995;SDS011;38556;47.068;15.408;2023-06-26T11:15:45;25.97;;;24.37;;
1995;SDS011;38556;47.068;15.408;2023-06-26T11:18:14;27.20;;;25.50;;
1995;SDS011;38556;47.068;15.408;2023-06-26T11:20:42;26.63;;;24.93;;
1995;SDS011;38556;47.068;15.408;2023-06-26T11:23:09;26.67;;;24.93;;
1995;SDS011;38556;47.068;15.408;2023-06-26T11:25:37;25.33;;;23.97;;
1995;SDS011;38556;47.068;15.408;2023-06-26T11:28:05;25.80;;;24.40;;
1995;SDS011;38556;47.068;15.408;2023-06-26T11:30:36;24.73;;;23.40;;
1995;SDS011;38556;47.068;15.408;2023-06-26T11:33:05;25.60;;;24.10;;
1995;SDS011;38556;47.068;15.408;2023-06-26T11:35:34;26.67;;;25.10;;
1995;SDS011;38556;47.068;15.408;2023-06-26T11:38:03;25.63;;;23.87;;
1995;SDS011;38556;47.068;15.408;2023-06-26T11:40:30;26.30;;;24.80;;
1995;SDS011;38556;47.068;15.408;2023-06-26T11:43:00;25.40;;;23.90;;
1995;SDS011;38556;47.068;15.408;2023-06-26T11:45:28;25.90;;;24.50;;
1995;SDS011;38556;47.068;15.408;2023-06-26T11:47:57;27.60;;;26.03;;
1995;SDS011;38556;47.068;15.408;2023-06-26T11:50:24;26.17;;;24.60;;
1995;SDS011;38556;47.068;15.408;2023-06-26T11:52:58;27.70;;;25.90;;
1995;SDS011;38556;47.068;15.408;2023-06-26T11:55:27;26.80;;;25.30;;
1995;SDS011;38556;47.068;15.408;2023-06-26T11:58:06;26.53;;;24.97;;
1995;SDS011;38556;47.068;15.408;2023-06-26T12:00:34;25.37;;;23.97;;
1995;SDS011;38556;47.068;15.408;2023-06-26T12:03:01;26.00;;;24.60;;
1995;SDS011;38556;47.068;15.408;2023-06-26T12:05:29;25.37;;;23.87;;
1995;SDS011;38556;47.068;15.408;2023-06-26T12:07:57;27.33;;;25.47;;
1995;SDS011;38556;47.068;15.408;2023-06-26T12:10:26;25.80;;;24.23;;
1995;SDS011;38556;47.068;15.408;2023-06-26T12:12:53;26.90;;;25.30;;
1995;SDS011;38556;47.068;15.408;2023-06-26T12:15:24;26.10;;;24.60;;
1995;SDS011;38556;47.068;15.408;2023-06-26T12:17:51;24.90;;;23.27;;
1995;SDS011;38556;47.068;15.408;2023-06-26T12:20:20;25.50;;;23.90;;
1995;SDS011;38556;47.068;15.408;2023-06-26T12:22:48;25.43;;;23.93;;
1995;SDS011;38556;47.068;15.408;2023-06-26T12:25:22;25.30;;;24.00;;
1995;SDS011;38556;47.068;15.408;2023-06-26T12:27:50;26.43;;;24.93;;
1995;SDS011;38556;47.068;15.408;2023-06-26T12:30:17;26.60;;;24.90;;
1995;SDS011;38556;47.068;15.408;2023-06-26T12:32:44;29.87;;;28.17;;
1995;SDS011;38556;47.068;15.408;2023-06-26T12:35:13;25.13;;;23.50;;
1995;SDS011;38556;47.068;15.408;2023-06-26T12:37:41;25.90;;;24.50;;
1995;SDS011;38556;47.068;15.408;2023-06-26T12:40:16;25.73;;;24.17;;
1995;SDS011;38556;47.068;15.408;2023-06-26T12:42:45;25.13;;;23.73;;
1995;SDS011;38556;47.068;15.408;2023-06-26T12:45:13;26.40;;;24.70;;
1995;SDS011;38556;47.068;15.408;2023-06-26T12:47:41;24.40;;;23.00;;
1995;SDS011;38556;47.068;15.408;2023-06-26T12:50:09;25.53;;;23.67;;
1995;SDS011;38556;47.068;15.408;2023-06-26T12:52:38;24.70;;;23.40;;
1995;SDS011;38556;47.068;15.408;2023-06-26T12:55:06;23.30;;;22.10;;
1995;SDS011;38556;47.068;15.408;2023-06-26T12:57:33;24.73;;;23.33;;
1995;SDS011;38556;47.068;15.408;2023-06-26T13:00:03;24.33;;;22.93;;
1995;SDS011;38556;47.068;15.408;2023-06-26T13:02:35;25.40;;;24.00;;
1995;SDS011;38556;47.068;15.408;2023-06-26T13:05:02;24.60;;;23.20;;
1995;SDS011;38556;47.068;15.408;2023-06-26T13:07:30;25.07;;;23.67;;
1995;SDS011;38556;47.068;15.408;2023-06-26T13:09:57;25.27;;;23.77;;
1995;SDS011;38556;47.068;15.408;2023-06-26T13:12:25;23.90;;;22.60;;
1995;SDS011;38556;47.068;15.408;2023-06-26T13:14:52;24.37;;;23.07;;
1995;SDS011;38556;47.068;15.408;2023-06-26T13:17:21;24.33;;;22.93;;
1995;SDS011;38556;47.068;15.408;2023-06-26T13:19:48;26.13;;;24.73;;
1995;SDS011;38556;47.068;15.408;2023-06-26T13:22:15;25.57;;;24.07;;
1995;SDS011;38556;47.068;15.408;2023-06-26T13:24:42;25.50;;;24.10;;
1995;SDS011;38556;47.068;15.408;2023-06-26T13:27:10;24.67;;;23.37;;
1995;SDS011;38556;47.068;15.408;2023-06-26T13:29:37;24.27;;;22.97;;
1995;SDS011;38556;47.068;15.408;2023-06-26T13:32:05;24.47;;;23.17;;
1995;SDS011;38556;47.068;15.408;2023-06-26T13:34:34;24.33;;;22.93;;
1995;SDS011;38556;47.068;15.408;2023-06-26T13:37:02;23.70;;;22.50;;
1995;SDS011;38556;47.068;15.408;2023-06-26T13:39:29;24.07;;;22.77;;
1995;SDS011;38556;47.068;15.408;2023-06-26T13:41:56;23.80;;;22.60;;
1995;SDS011;38556;47.068;15.408;2023-06-26T13:44:23;24.00;;;22.70;;
1995;SDS011;38556;47.068;15.408;2023-06-26T13:46:51;24.33;;;22.93;;
1995;SDS011;38556;47.068;15.408;2023-06-26T13:49:18;25.07;;;23.67;;
1995;SDS011;38556;47.068;15.408;2023-06-26T13:51:47;24.30;;;23.00;;
1995;SDS011;38556;47.068;15.408;2023-06-26T13:54:14;24.53;;;23.23;;
1995;SDS011;38556;47.068;15.408;2023-06-26T13:56:44;23.97;;;22.50;;
1995;SDS011;38556;47.068;15.408;2023-06-26T13:59:11;25.00;;;23.70;;
1995;SDS011;38556;47.068;15.408;2023-06-26T14:01:39;24.83;;;23.33;;
1995;SDS011;38556;47.068;15.408;2023-06-26T14:04:07;24.77;;;23.47;;
1995;SDS011;38556;47.068;15.408;2023-06-26T14:06:35;27.13;;;25.43;;
1995;SDS011;38556;47.068;15.408;2023-06-26T14:09:04;25.37;;;23.97;;
1995;SDS011;38556;47.068;15.408;2023-06-26T14:11:32;24.30;;;22.90;;
1995;SDS011;38556;47.068;15.408;2023-06-26T14:13:59;25.10;;;23.50;;
1995;SDS011;38556;47.068;15.408;2023-06-26T14:16:26;23.93;;;22.63;;
1995;SDS011;38556;47.068;15.408;2023-06-26T14:18:54;23.90;;;22.60;;
1995;SDS011;38556;47.068;15.408;2023-06-26T14:21:21;24.63;;;23.23;;
1995;SDS011;38556;47.068;15.408;2023-06-26T14:23:48;23.87;;;22.57;;
1995;SDS011;38556;47.068;15.408;2023-06-26T14:26:17;22.87;;;21.73;;
1995;SDS011;38556;47.068;15.408;2023-06-26T14:28:44;23.23;;;22.03;;
1995;SDS011;38556;47.068;15.408;2023-06-26T14:31:12;23.53;;;22.30;;